Terminal Aerodrome Forecast
Issued by NWS Green Bay, WI

Home | Current Version | Previous Version | Text Only | Print | Product List | Glossary On
Versions: 1 2 3 4 5 6 7 8 9 10 11 12 13 14 15 16 17 18 19 20 21 22 23 24 25 26 27 28 29 30 31 32 33 34 35 36 37 38 39 40 41 42 43 44
328
FTUS43 KGRB 301131
TAFGRB
TAF
KGRB 301131Z 3012/0112 04010KT P6SM SCT008 OVC012
      TEMPO 3012/3014 6SM -DZ BKN008
     FM301400 05011G17KT P6SM OVC015
     FM301700 05012G18KT P6SM OVC021
     FM302100 05011G17KT P6SM -SHRA OVC018
     FM302300 04010KT P6SM -SHRA OVC014
     FM010300 05008KT P6SM -SHRA OVC007=

USA.gov is the U.S. government's official web portal to all federal, state and local government web resources and services.